Time,TemperatureF,DewpointF,PressureIn,WindDirection,WindDirectionDegrees,WindSpeedMPH,WindSpeedGustMPH,Humidity,HourlyPrecipIn,Conditions,Clouds,dailyrainin,SoftwareType,DateUTC
2013-01-14 09:30:00,58.0,58.0,29.97,West,270,0.0,0.0,100,0.00,,,0.00,VWS V14.01,2013-01-14 14:30:00,
2013-01-14 09:31:00,58.0,58.0,29.97,NNW,341,0.0,3.6,100,0.00,,,0.00,VWS V14.01,2013-01-14 14:31:00,
2013-01-14 09:36:00,58.0,58.0,29.97,NW,326,0.0,4.9,100,0.00,,,0.00,VWS V14.01,2013-01-14 14:36:00,
2013-01-14 09:41:00,58.0,58.0,29.97,WNW,297,3.6,4.9,100,0.00,,,0.00,VWS V14.01,2013-01-14 14:41:00,
2013-01-14 09:46:00,58.0,58.0,29.97,NW,306,0.0,5.8,100,0.00,,,0.00,VWS V14.01,2013-01-14 14:46:00,
2013-01-14 09:51:00,58.0,58.0,29.97,NNW,338,5.4,6.3,100,0.00,,,0.00,VWS V14.01,2013-01-14 14:51:00,
2013-01-14 09:57:00,57.8,57.8,29.97,WNW,283,5.8,5.8,100,0.00,,,0.00,VWS V14.01,2013-01-14 14:57:00,
2013-01-14 10:02:00,57.5,57.5,29.97,West,265,0.0,0.0,100,0.00,,,0.00,VWS V14.01,2013-01-14 15:02:00,
2013-01-14 10:07:00,57.3,57.3,30.00,WNW,301,5.8,5.8,100,0.00,,,0.00,VWS V14.01,2013-01-14 15:07:00,
2013-01-14 10:12:00,57.1,57.1,30.00,NW,321,4.9,4.9,100,0.00,,,0.00,VWS V14.01,2013-01-14 15:12:00,
2013-01-14 10:17:00,56.9,56.9,30.00,NW,319,0.0,0.0,100,0.00,,,0.00,VWS V14.01,2013-01-14 15:17:00,
2013-01-14 10:22:00,56.9,56.9,29.97,WNW,301,0.0,2.2,100,0.00,,,0.00,VWS V14.01,2013-01-14 15:22:00,
2013-01-14 10:27:00,56.9,56.9,29.97,WNW,283,0.0,2.7,100,0.00,,,0.00,VWS V14.01,2013-01-14 15:27:00,
2013-01-14 10:32:00,56.9,56.9,29.97,West,265,4.0,4.0,100,0.00,,,0.00,VWS V14.01,2013-01-14 15:32:00,
2013-01-14 10:37:00,56.9,56.9,29.97,West,273,0.0,2.7,100,0.00,,,0.00,VWS V14.01,2013-01-14 15:37:00,
2013-01-14 10:42:00,57.1,57.1,29.97,NNW,344,3.1,3.6,100,0.00,,,0.00,VWS V14.01,2013-01-14 15:42:00,
2013-01-14 10:47:00,57.1,57.1,29.97,NNW,329,0.0,0.0,100,0.00,,,0.00,VWS V14.01,2013-01-14 15:47:00,
2013-01-14 10:52:00,57.3,57.3,29.97,NNW,332,0.0,2.2,100,0.00,,,0.00,VWS V14.01,2013-01-14 15:52:00,
2013-01-14 10:57:00,57.3,57.3,29.97,NNW,333,4.0,4.0,100,0.00,,,0.00,VWS V14.01,2013-01-14 15:57:00,
2013-01-14 11:02:00,57.3,57.3,29.97,ENE,70,2.7,3.6,100,0.00,,,0.00,VWS V14.01,2013-01-14 16:02:00,
2013-01-14 11:07:00,57.5,57.5,29.97,West,274,3.1,4.0,100,0.00,,,0.00,VWS V14.01,2013-01-14 16:07:00,
2013-01-14 11:12:00,57.5,57.5,29.97,NNW,331,0.0,0.0,100,0.00,,,0.00,VWS V14.01,2013-01-14 16:12:00,
2013-01-14 11:17:00,57.7,57.7,29.97,West,279,3.1,4.0,100,0.00,,,0.00,VWS V14.01,2013-01-14 16:17:00,
2013-01-14 11:22:00,57.7,57.7,29.97,NNW,339,3.1,3.1,100,0.00,,,0.00,VWS V14.01,2013-01-14 16:22:00,
2013-01-14 11:27:00,57.8,57.8,29.97,NNW,337,4.0,4.0,100,0.00,,,0.00,VWS V14.01,2013-01-14 16:27:00,
2013-01-14 11:32:00,57.8,57.8,29.97,NNW,345,2.7,6.3,100,0.00,,,0.00,VWS V14.01,2013-01-14 16:32:00,
2013-01-14 11:37:00,57.8,57.8,29.97,NNW,331,3.6,3.6,100,0.00,,,0.00,VWS V14.01,2013-01-14 16:37:00,
2013-01-14 11:42:00,57.8,57.8,29.97,NNW,333,3.6,6.3,100,0.00,,,0.00,VWS V14.01,2013-01-14 16:42:00,
2013-01-14 11:47:00,57.8,57.8,29.97,North,353,2.7,2.7,100,0.00,,,0.00,VWS V14.01,2013-01-14 16:47:00,
2013-01-14 11:52:00,57.8,57.8,29.97,North,353,0.0,2.7,100,0.00,,,0.00,VWS V14.01,2013-01-14 16:52:00,
2013-01-14 11:57:00,57.7,57.7,29.97,NW,324,3.6,5.8,100,0.00,,,0.00,VWS V14.01,2013-01-14 16:57:00,
2013-01-14 12:03:00,57.7,57.7,29.97,North,353,0.0,3.6,100,0.00,,,0.00,VWS V14.01,2013-01-14 17:03:00,
2013-01-14 12:08:00,57.7,57.7,29.97,North,353,2.2,5.4,100,0.00,,,0.00,VWS V14.01,2013-01-14 17:08:00,
2013-01-14 12:13:00,57.8,57.8,29.97,NW,326,4.0,4.0,100,0.00,,,0.00,VWS V14.01,2013-01-14 17:13:00,
2013-01-14 12:18:00,57.8,57.8,29.97,NNW,343,3.6,4.9,100,0.00,,,0.00,VWS V14.01,2013-01-14 17:18:00,
2013-01-14 12:23:00,58.0,57.7,29.97,NNW,343,0.0,0.0,99,0.00,,,0.00,VWS V14.01,2013-01-14 17:23:00,
2013-01-14 12:28:00,57.8,57.0,29.97,WNW,297,2.7,4.0,97,0.00,,,0.00,VWS V14.01,2013-01-14 17:28:00,
2013-01-14 12:33:00,57.8,55.8,29.97,NW,307,2.7,3.1,93,0.00,,,0.00,VWS V14.01,2013-01-14 17:33:00,
2013-01-14 12:38:00,58.2,53.1,29.94,NNW,335,0.0,3.1,83,0.00,,,0.00,VWS V14.01,2013-01-14 17:38:00,
2013-01-14 12:43:00,58.4,51.2,29.94,NNW,337,2.2,2.2,77,0.00,,,0.00,VWS V14.01,2013-01-14 17:43:00,
2013-01-14 12:48:00,58.6,50.0,29.94,NNW,342,3.1,4.0,73,0.00,,,0.00,VWS V14.01,2013-01-14 17:48:00,
2013-01-14 12:53:00,58.7,48.6,29.97,NW,316,0.0,4.0,69,0.00,,,0.00,VWS V14.01,2013-01-14 17:53:00,
2013-01-14 12:58:00,58.7,47.8,29.97,NW,322,6.3,6.3,67,0.00,,,0.00,VWS V14.01,2013-01-14 17:58:00,
2013-01-14 13:03:00,58.7,47.8,29.97,North,0,0.0,0.0,67,0.00,,,0.00,VWS V14.01,2013-01-14 18:03:00,
2013-01-14 13:08:00,58.9,48.0,30.00,North,353,0.0,0.0,67,0.00,,,0.00,VWS V14.01,2013-01-14 18:08:00,
2013-01-14 13:13:00,58.9,47.6,30.00,NW,323,5.4,5.4,66,0.00,,,0.00,VWS V14.01,2013-01-14 18:13:00,
2013-01-14 13:18:00,59.1,46.5,30.00,NNE,13,0.0,0.0,63,0.00,,,0.00,VWS V14.01,2013-01-14 18:18:00,
2013-01-14 13:23:00,59.1,46.5,30.00,WNW,289,3.6,3.6,63,0.00,,,0.00,VWS V14.01,2013-01-14 18:23:00,
2013-01-14 13:28:00,59.1,45.2,30.00,NNW,334,5.8,6.3,60,0.00,,,0.00,VWS V14.01,2013-01-14 18:28:00,
2013-01-14 13:33:00,59.1,45.2,30.00,NNW,339,5.4,5.4,60,0.00,,,0.00,VWS V14.01,2013-01-14 18:33:00,
2013-01-14 13:38:00,59.1,44.8,30.00,NNW,342,5.4,5.4,59,0.00,,,0.00,VWS V14.01,2013-01-14 18:38:00,
2013-01-14 13:43:00,59.1,44.3,30.00,NNW,341,2.7,2.7,58,0.00,,,0.00,VWS V14.01,2013-01-14 18:43:00,
2013-01-14 13:48:00,59.1,43.4,30.00,NNW,338,3.1,4.0,56,0.00,,,0.00,VWS V14.01,2013-01-14 18:48:00,
2013-01-14 13:53:00,58.9,41.8,30.00,NW,325,5.8,6.3,53,0.00,,,0.00,VWS V14.01,2013-01-14 18:53:00,
2013-01-14 13:58:00,58.7,39.7,30.00,North,349,4.0,7.2,49,0.00,,,0.00,VWS V14.01,2013-01-14 18:58:00,
2013-01-14 14:03:00,58.7,39.7,30.00,North,3,4.0,4.9,49,0.00,,,0.00,VWS V14.01,2013-01-14 19:03:00,
2013-01-14 14:09:00,58.6,39.5,30.00,NNW,344,5.4,6.3,49,0.00,,,0.00,VWS V14.01,2013-01-14 19:09:00,
2013-01-14 14:14:00,58.7,40.2,30.00,NNW,348,0.0,5.4,50,0.00,,,0.00,VWS V14.01,2013-01-14 19:14:00,
2013-01-14 14:19:00,58.7,40.2,30.00,North,353,6.3,6.3,50,0.00,,,0.00,VWS V14.01,2013-01-14 19:19:00,
2013-01-14 14:24:00,58.7,40.7,30.03,NNW,338,3.1,5.8,51,0.00,,,0.00,VWS V14.01,2013-01-14 19:24:00,
2013-01-14 14:29:00,58.7,40.7,30.03,NW,306,4.9,4.9,51,0.00,,,0.00,VWS V14.01,2013-01-14 19:29:00,
2013-01-14 14:34:00,58.6,41.0,30.03,North,353,0.0,3.1,52,0.00,,,0.00,VWS V14.01,2013-01-14 19:34:00,
2013-01-14 14:39:00,58.6,41.5,30.03,NW,305,4.9,6.3,53,0.00,,,0.00,VWS V14.01,2013-01-14 19:39:00,
2013-01-14 14:44:00,58.4,41.3,30.03,NNW,339,3.1,5.8,53,0.00,,,0.00,VWS V14.01,2013-01-14 19:44:00,
2013-01-14 14:49:00,58.2,41.7,30.03,NNW,330,3.1,3.6,54,0.00,,,0.00,VWS V14.01,2013-01-14 19:49:00,
2013-01-14 14:54:00,58.0,41.5,30.03,North,0,2.7,4.0,54,0.00,,,0.00,VWS V14.01,2013-01-14 19:54:00,
2013-01-14 14:59:00,57.8,41.3,30.03,North,349,2.2,4.0,54,0.00,,,0.00,VWS V14.01,2013-01-14 19:59:00,
2013-01-14 15:04:00,57.8,40.8,30.03,North,5,4.9,8.3,53,0.00,,,0.00,VWS V14.01,2013-01-14 20:04:00,
2013-01-14 15:09:00,57.7,40.7,30.03,NNW,332,4.0,4.0,53,0.00,,,0.00,VWS V14.01,2013-01-14 20:09:00,
2013-01-14 15:14:00,57.5,40.5,30.03,WSW,248,5.8,5.8,53,0.00,,,0.00,VWS V14.01,2013-01-14 20:14:00,
2013-01-14 15:19:00,57.5,41.0,30.03,WNW,297,0.0,0.0,54,0.00,,,0.00,VWS V14.01,2013-01-14 20:19:00,
2013-01-14 15:24:00,57.5,41.0,30.03,NNW,335,3.6,3.6,54,0.00,,,0.00,VWS V14.01,2013-01-14 20:24:00,
2013-01-14 15:29:00,57.3,40.8,30.03,North,349,2.7,3.6,54,0.00,,,0.00,VWS V14.01,2013-01-14 20:29:00,
2013-01-14 15:34:00,57.3,40.8,30.03,NW,314,4.0,4.0,54,0.00,,,0.00,VWS V14.01,2013-01-14 20:34:00,
2013-01-14 15:39:00,57.3,40.8,30.03,NNW,332,2.2,2.7,54,0.00,,,0.00,VWS V14.01,2013-01-14 20:39:00,
2013-01-14 15:44:00,57.1,40.7,30.03,NNW,332,2.7,3.1,54,0.00,,,0.00,VWS V14.01,2013-01-14 20:44:00,
2013-01-14 15:49:00,57.1,40.7,30.03,NNW,345,2.7,5.4,54,0.00,,,0.00,VWS V14.01,2013-01-14 20:49:00,
2013-01-14 15:54:00,57.1,40.7,30.03,NNE,16,3.1,3.6,54,0.00,,,0.00,VWS V14.01,2013-01-14 20:54:00,
2013-01-14 15:59:00,56.9,40.5,30.03,West,264,0.0,0.0,54,0.00,,,0.00,VWS V14.01,2013-01-14 20:59:00,
2013-01-14 16:04:00,56.9,40.5,30.03,West,264,0.0,0.0,54,0.00,,,0.00,VWS V14.01,2013-01-14 21:04:00,
2013-01-14 16:09:00,56.9,40.0,30.03,North,1,0.0,7.6,53,0.00,,,0.00,VWS V14.01,2013-01-14 21:09:00,
2013-01-14 16:14:00,56.8,39.8,30.03,North,0,2.2,3.1,53,0.00,,,0.00,VWS V14.01,2013-01-14 21:14:00,
2013-01-14 16:19:00,56.8,39.8,30.03,North,0,4.0,4.0,53,0.00,,,0.00,VWS V14.01,2013-01-14 21:19:00,
2013-01-14 16:24:00,56.8,39.3,30.03,NNW,348,0.0,0.0,52,0.00,,,0.00,VWS V14.01,2013-01-14 21:24:00,
2013-01-14 16:29:00,56.8,39.3,30.03,North,350,2.7,3.6,52,0.00,,,0.00,VWS V14.01,2013-01-14 21:29:00,
2013-01-14 16:34:00,56.6,39.2,30.03,NNW,341,3.6,4.0,52,0.00,,,0.00,VWS V14.01,2013-01-14 21:34:00,
2013-01-14 16:39:00,56.6,38.2,30.06,North,353,3.6,8.3,50,0.00,,,0.00,VWS V14.01,2013-01-14 21:39:00,
2013-01-14 16:44:00,56.6,38.2,30.06,NNW,337,0.0,0.0,50,0.00,,,0.00,VWS V14.01,2013-01-14 21:44:00,
2013-01-14 16:49:00,56.4,37.5,30.06,North,357,3.1,4.5,49,0.00,,,0.00,VWS V14.01,2013-01-14 21:49:00,
2013-01-14 16:54:00,56.4,34.8,30.06,North,353,5.4,6.3,44,0.00,,,0.00,VWS V14.01,2013-01-14 21:54:00,
2013-01-14 16:59:00,56.4,34.2,30.06,NNE,17,0.0,5.4,43,0.00,,,0.00,VWS V14.01,2013-01-14 21:59:00,
2013-01-14 17:04:00,56.2,33.5,30.06,North,353,4.0,4.9,42,0.00,,,0.00,VWS V14.01,2013-01-14 22:04:00,
2013-01-14 17:09:00,56.0,33.3,30.06,North,11,0.0,4.9,42,0.00,,,0.00,VWS V14.01,2013-01-14 22:09:00,
2013-01-14 17:14:00,56.0,33.3,30.06,North,353,0.0,4.0,42,0.00,,,0.00,VWS V14.01,2013-01-14 22:14:00,
2013-01-14 17:19:00,55.9,33.1,30.06,North,353,0.0,0.0,42,0.00,,,0.00,VWS V14.01,2013-01-14 22:19:00,
2013-01-14 17:24:00,55.7,32.4,30.06,NNW,335,3.6,5.4,41,0.00,,,0.00,VWS V14.01,2013-01-14 22:24:00,
2013-01-14 17:29:00,55.7,32.4,30.06,NNW,341,0.0,0.0,41,0.00,,,0.00,VWS V14.01,2013-01-14 22:29:00,
2013-01-14 17:34:00,55.5,32.8,30.06,NNE,13,0.0,0.0,42,0.00,,,0.00,VWS V14.01,2013-01-14 22:34:00,
2013-01-14 17:39:00,55.5,32.8,30.06,North,357,0.0,0.0,42,0.00,,,0.00,VWS V14.01,2013-01-14 22:39:00,
2013-01-14 17:44:00,55.5,32.2,30.06,North,353,2.7,4.0,41,0.00,,,0.00,VWS V14.01,2013-01-14 22:44:00,
2013-01-14 17:49:00,55.3,32.6,30.06,North,353,0.0,0.0,42,0.00,,,0.00,VWS V14.01,2013-01-14 22:49:00,
2013-01-14 17:54:00,55.3,32.6,30.06,North,353,0.0,0.0,42,0.00,,,0.00,VWS V14.01,2013-01-14 22:54:00,
2013-01-14 17:59:00,55.1,32.5,30.06,North,353,0.0,0.0,42,0.00,,,0.00,VWS V14.01,2013-01-14 22:59:00,
2013-01-14 18:04:00,55.0,32.9,30.06,North,353,0.0,0.0,43,0.00,,,0.00,VWS V14.01,2013-01-14 23:04:00,
2013-01-14 18:09:00,55.0,32.9,30.06,North,353,0.0,0.0,43,0.00,,,0.00,VWS V14.01,2013-01-14 23:09:00,
2013-01-14 18:14:00,54.8,32.7,30.06,North,353,0.0,0.0,43,0.00,,,0.00,VWS V14.01,2013-01-14 23:14:00,
2013-01-14 18:19:00,54.8,32.7,30.06,North,353,0.0,0.0,43,0.00,,,0.00,VWS V14.01,2013-01-14 23:19:00,
2013-01-14 18:24:00,54.6,32.6,30.09,North,353,0.0,0.0,43,0.00,,,0.00,VWS V14.01,2013-01-14 23:24:00,
2013-01-14 18:29:00,54.6,32.6,30.09,North,353,0.0,0.0,43,0.00,,,0.00,VWS V14.01,2013-01-14 23:29:00,
2013-01-14 18:34:00,54.4,32.4,30.09,North,353,0.0,0.0,43,0.00,,,0.00,VWS V14.01,2013-01-14 23:34:00,
2013-01-14 18:39:00,54.4,32.4,30.06,North,353,0.0,0.0,43,0.00,,,0.00,VWS V14.01,2013-01-14 23:39:00,
2013-01-14 18:44:00,54.4,32.4,30.06,North,353,0.0,0.0,43,0.00,,,0.00,VWS V14.01,2013-01-14 23:44:00,
2013-01-14 18:49:00,54.4,33.0,30.06,North,353,0.0,0.0,44,0.00,,,0.00,VWS V14.01,2013-01-14 23:49:00,
2013-01-14 18:54:00,54.2,33.4,30.09,North,353,0.0,0.0,45,0.00,,,0.00,VWS V14.01,2013-01-14 23:54:00,
2013-01-14 18:59:00,54.1,33.2,30.09,North,353,0.0,0.0,45,0.00,,,0.00,VWS V14.01,2013-01-14 23:59:00,
2013-01-14 19:04:00,53.9,33.0,30.09,North,353,0.0,0.0,45,0.00,,,0.00,VWS V14.01,2013-01-15 00:04:00,
2013-01-14 19:09:00,53.9,33.0,30.09,North,353,0.0,0.0,45,0.00,,,0.00,VWS V14.01,2013-01-15 00:09:00,
2013-01-14 19:14:00,53.9,33.0,30.09,North,353,0.0,0.0,45,0.00,,,0.00,VWS V14.01,2013-01-15 00:14:00,
2013-01-14 19:19:00,53.9,33.0,30.09,North,353,0.0,0.0,45,0.00,,,0.00,VWS V14.01,2013-01-15 00:19:00,
2013-01-14 19:24:00,53.9,33.0,30.09,NNW,345,4.0,4.0,45,0.00,,,0.00,VWS V14.01,2013-01-15 00:24:00,
2013-01-14 19:29:00,53.9,33.0,30.09,NNW,344,3.1,3.6,45,0.00,,,0.00,VWS V14.01,2013-01-15 00:29:00,
2013-01-14 19:34:00,53.7,32.9,30.09,NNW,340,0.0,0.0,45,0.00,,,0.00,VWS V14.01,2013-01-15 00:34:00,
2013-01-14 19:39:00,53.7,32.3,30.12,NNW,336,3.1,3.6,44,0.00,,,0.00,VWS V14.01,2013-01-15 00:39:00,
2013-01-14 19:44:00,53.7,32.3,30.12,NNE,25,2.2,4.0,44,0.00,,,0.00,VWS V14.01,2013-01-15 00:44:00,
2013-01-14 19:49:00,53.7,31.8,30.12,NNW,348,4.0,4.0,43,0.00,,,0.00,VWS V14.01,2013-01-15 00:49:00,
2013-01-14 19:54:00,53.5,30.4,30.12,NNW,348,7.6,8.7,41,0.00,,,0.00,VWS V14.01,2013-01-15 00:54:00,
2013-01-14 19:59:00,53.3,29.6,30.12,NNW,343,3.6,5.8,40,0.00,,,0.00,VWS V14.01,2013-01-15 00:59:00,
2013-01-14 20:04:00,53.0,28.7,30.12,NNW,329,3.6,6.3,39,0.00,,,0.00,VWS V14.01,2013-01-15 01:04:00,
2013-01-14 20:09:00,52.4,29.4,30.15,NNW,337,5.4,5.4,41,0.00,,,0.00,VWS V14.01,2013-01-15 01:09:00,
2013-01-14 20:14:00,50.8,30.3,30.15,NNW,328,7.2,7.2,45,0.00,,,0.00,VWS V14.01,2013-01-15 01:14:00,
2013-01-14 20:19:00,49.2,29.9,30.15,NNW,337,3.1,4.0,47,0.04,,,0.04,VWS V14.01,2013-01-15 01:19:00,
2013-01-14 20:24:00,48.3,31.0,30.15,NNE,16,0.0,0.0,51,0.04,,,0.04,VWS V14.01,2013-01-15 01:24:00,
2013-01-14 20:29:00,47.6,31.3,30.15,NNW,341,3.6,4.0,53,0.04,,,0.04,VWS V14.01,2013-01-15 01:29:00,
2013-01-14 20:34:00,47.0,32.6,30.15,NNW,338,5.8,6.3,57,0.04,,,0.04,VWS V14.01,2013-01-15 01:34:00,
2013-01-14 20:39:00,46.5,31.7,30.15,NNW,330,0.0,3.1,56,0.08,,,0.08,VWS V14.01,2013-01-15 01:39:00,
2013-01-14 20:44:00,46.0,32.0,30.15,North,0,0.0,0.0,58,0.08,,,0.08,VWS V14.01,2013-01-15 01:44:00,
2013-01-14 20:49:00,45.6,32.5,30.15,North,0,0.0,0.0,60,0.12,,,0.12,VWS V14.01,2013-01-15 01:49:00,
2013-01-14 20:54:00,45.2,33.0,30.15,North,0,0.0,0.0,62,0.12,,,0.12,VWS V14.01,2013-01-15 01:54:00,
2013-01-14 20:59:00,45.1,33.6,30.15,North,0,0.0,0.0,64,0.12,,,0.12,VWS V14.01,2013-01-15 01:59:00,
2013-01-14 21:05:00,44.7,33.7,30.15,North,0,0.0,0.0,65,0.12,,,0.12,VWS V14.01,2013-01-15 02:05:00,
2013-01-14 21:10:00,44.7,34.0,30.15,North,0,0.0,0.0,66,0.12,,,0.12,VWS V14.01,2013-01-15 02:10:00,
2013-01-14 21:15:00,44.7,34.4,30.15,North,0,0.0,0.0,67,0.12,,,0.12,VWS V14.01,2013-01-15 02:15:00,
2013-01-14 21:20:00,44.7,35.2,30.15,North,0,0.0,0.0,69,0.08,,,0.12,VWS V14.01,2013-01-15 02:20:00,
2013-01-14 21:25:00,44.7,35.5,30.15,North,0,0.0,0.0,70,0.08,,,0.12,VWS V14.01,2013-01-15 02:25:00,
2013-01-14 21:30:00,44.5,35.7,30.15,North,0,0.0,0.0,71,0.08,,,0.12,VWS V14.01,2013-01-15 02:30:00,
2013-01-14 21:35:00,44.5,35.7,30.15,North,0,0.0,0.0,71,0.08,,,0.12,VWS V14.01,2013-01-15 02:35:00,
2013-01-14 21:40:00,44.3,35.9,30.15,North,0,0.0,0.0,72,0.04,,,0.12,VWS V14.01,2013-01-15 02:40:00,
2013-01-14 21:45:00,44.3,36.2,30.15,North,0,3.1,3.1,73,0.04,,,0.12,VWS V14.01,2013-01-15 02:45:00,
2013-01-14 21:50:00,44.5,36.1,30.15,North,0,0.0,0.0,72,0.00,,,0.12,VWS V14.01,2013-01-15 02:50:00,
2013-01-14 21:55:00,44.5,35.7,30.15,North,0,0.0,0.0,71,0.00,,,0.12,VWS V14.01,2013-01-15 02:55:00,
2013-01-14 22:00:00,44.5,35.0,30.15,NNW,337,3.1,3.1,69,0.00,,,0.12,VWS V14.01,2013-01-15 03:00:00,
2013-01-14 22:05:00,44.7,34.0,30.15,NNW,337,0.0,0.0,66,0.00,,,0.12,VWS V14.01,2013-01-15 03:05:00,
2013-01-14 22:10:00,44.7,33.7,30.15,NNW,337,0.0,0.0,65,0.00,,,0.12,VWS V14.01,2013-01-15 03:10:00,
2013-01-14 22:15:00,44.5,33.5,30.15,NNW,337,0.0,0.0,65,0.00,,,0.12,VWS V14.01,2013-01-15 03:15:00,
2013-01-14 22:20:00,44.3,33.7,30.15,NNW,337,0.0,0.0,66,0.00,,,0.12,VWS V14.01,2013-01-15 03:20:00,
2013-01-14 22:25:00,44.2,33.5,30.15,NNW,333,2.2,4.9,66,0.00,,,0.12,VWS V14.01,2013-01-15 03:25:00,
2013-01-14 22:30:00,44.2,32.4,30.15,North,353,0.0,0.0,63,0.00,,,0.12,VWS V14.01,2013-01-15 03:30:00,
2013-01-14 22:35:00,44.3,30.5,30.15,North,6,0.0,0.0,58,0.00,,,0.12,VWS V14.01,2013-01-15 03:35:00,
2013-01-14 22:40:00,44.3,29.2,30.15,North,353,6.3,6.3,55,0.00,,,0.12,VWS V14.01,2013-01-15 03:40:00,
2013-01-14 22:45:00,44.7,28.2,30.15,NNE,25,3.1,3.6,52,0.00,,,0.12,VWS V14.01,2013-01-15 03:45:00,
2013-01-14 22:50:00,44.7,28.6,30.15,North,357,3.6,4.0,53,0.00,,,0.12,VWS V14.01,2013-01-15 03:50:00,
2013-01-14 22:55:00,44.7,28.6,30.15,NNE,12,4.0,4.9,53,0.00,,,0.12,VWS V14.01,2013-01-15 03:55:00,
2013-01-14 23:00:00,44.5,28.0,30.15,NE,45,3.1,4.9,52,0.00,,,0.12,VWS V14.01,2013-01-15 04:00:00,
2013-01-14 23:05:00,44.3,28.3,30.18,ENE,69,3.6,3.6,53,0.00,,,0.12,VWS V14.01,2013-01-15 04:05:00,
2013-01-14 23:10:00,44.3,28.3,30.18,NNW,345,7.2,7.2,53,0.00,,,0.12,VWS V14.01,2013-01-15 04:10:00,
2013-01-14 23:15:00,44.0,28.4,30.18,NNW,346,3.6,5.8,54,0.00,,,0.12,VWS V14.01,2013-01-15 04:15:00,
2013-01-14 23:20:00,43.6,29.0,30.18,NNW,338,5.8,6.3,56,0.00,,,0.12,VWS V14.01,2013-01-15 04:20:00,
2013-01-14 23:25:00,43.1,29.3,30.18,NNE,30,0.0,6.3,58,0.04,,,0.16,VWS V14.01,2013-01-15 04:25:00,
2013-01-14 23:30:00,42.5,29.6,30.18,NNW,339,4.9,4.9,60,0.04,,,0.16,VWS V14.01,2013-01-15 04:30:00,
2013-01-14 23:36:00,42.0,30.7,30.18,NNW,330,4.0,4.0,64,0.04,,,0.16,VWS V14.01,2013-01-15 04:36:00,
2013-01-14 23:41:00,41.6,31.9,30.18,NNW,342,3.1,4.9,68,0.04,,,0.16,VWS V14.01,2013-01-15 04:41:00,
2013-01-14 23:46:00,41.3,32.2,30.18,NNE,21,0.0,4.0,70,0.08,,,0.20,VWS V14.01,2013-01-15 04:46:00,
2013-01-14 23:51:00,41.1,32.8,30.18,NNE,12,2.2,4.0,72,0.08,,,0.20,VWS V14.01,2013-01-15 04:51:00,
2013-01-14 23:56:00,40.9,33.0,30.18,North,0,5.4,5.4,73,0.08,,,0.20,VWS V14.01,2013-01-15 04:56:00,